Terminal Aerodrome Forecast
Issued by NWS Northern Indiana

Home | Current Version | Previous Version | Text Only | Print | Product List | Glossary Off
Versions: 1 2 3 4 5 6 7 8 9 10 11 12 13 14 15 16 17

000
FTUS43 KIWX 291120
TAFFWA
TAF
KFWA 291120Z 2912/3012 07012KT P6SM SCT020
      TEMPO 2912/2914 BKN020
     FM292000 08013G22KT P6SM BKN200
     FM300800 08014G24KT P6SM SCT030 BKN060=

USA.gov is the U.S. government's official web portal to all federal, state and local government web resources and services.